Time;durP1;ratioP1;P1;durP2;ratioP2;P2;SDS_P1;SDS_P2;PMS_P1;PMS_P2;Temp;Humidity;BMP_temperature;BMP_pressure;BME280_temperature;BME280_humidity;BME280_pressure;Samples;Min_cycle;Max_cycle;Signal;HPM_P1;HPM_P2
2023/04/15 00:02:24;;;;;;;8.10;3.60;;;6.40;90.70;;;;;;6202001;22;87502;-71
2023/04/15 00:04:49;;;;;;;7.28;3.35;;;6.30;90.90;;;;;;6202300;22;87504;-72
2023/04/15 00:07:15;;;;;;;8.25;3.50;;;6.30;91.10;;;;;;6175749;22;90895;-73
2023/04/15 00:09:41;;;;;;;6.93;3.20;;;6.30;91.00;;;;;;6176267;22;91292;-72
2023/04/15 00:12:07;;;;;;;6.70;3.80;;;6.30;90.60;;;;;;6175819;22;89927;-72
2023/04/15 00:14:35;;;;;;;9.65;3.60;;;6.30;90.70;;;;;;6174392;22;88728;-72
2023/04/15 00:17:02;;;;;;;8.77;3.30;;;6.40;91.20;;;;;;6202114;22;87617;-73
2023/04/15 00:19:28;;;;;;;9.82;3.88;;;6.40;90.90;;;;;;6175233;22;91306;-72
2023/04/15 00:21:54;;;;;;;7.55;3.05;;;6.40;90.60;;;;;;6203211;22;88574;-73
2023/04/15 00:24:20;;;;;;;8.30;3.60;;;6.40;90.20;;;;;;6203585;22;87545;-72
2023/04/15 00:26:46;;;;;;;10.68;4.60;;;6.40;90.50;;;;;;6202915;22;87890;-74
2023/04/15 00:29:11;;;;;;;9.27;4.32;;;6.50;90.90;;;;;;6201774;22;88262;-72
2023/04/15 00:31:37;;;;;;;6.97;3.83;;;6.50;90.80;;;;;;6202522;22;89979;-72
2023/04/15 00:34:03;;;;;;;9.35;4.22;;;6.60;90.20;;;;;;6202174;22;87751;-72
2023/04/15 00:36:30;;;;;;;9.30;4.38;;;6.60;90.50;;;;;;6203159;22;87919;-72
2023/04/15 00:38:56;;;;;;;9.60;4.20;;;6.60;91.00;;;;;;6201239;22;89842;-72
2023/04/15 00:41:22;;;;;;;10.70;4.30;;;6.60;90.50;;;;;;6175288;22;91773;-72
2023/04/15 00:43:48;;;;;;;9.35;4.30;;;6.70;90.40;;;;;;6175420;22;87160;-72
2023/04/15 00:46:15;;;;;;;8.45;4.50;;;6.70;90.90;;;;;;6175320;22;90132;-72
2023/04/15 00:48:41;;;;;;;10.10;4.72;;;6.70;90.70;;;;;;6203279;22;89018;-71
2023/04/15 00:51:07;;;;;;;9.38;3.65;;;6.70;91.10;;;;;;6203041;22;87735;-72
2023/04/15 00:53:32;;;;;;;7.18;4.03;;;6.80;90.30;;;;;;6202196;22;87496;-72
2023/04/15 00:55:58;;;;;;;7.68;4.10;;;6.80;90.00;;;;;;6202336;22;86674;-72
2023/04/15 00:58:24;;;;;;;8.90;3.95;;;6.90;90.00;;;;;;6202923;22;88012;-73
2023/04/15 01:00:53;;;;;;;11.15;3.90;;;6.90;90.20;;;;;;6174821;22;90138;-72
2023/04/15 01:03:19;;;;;;;7.05;4.03;;;7.00;90.10;;;;;;6176291;22;88531;-72
2023/04/15 01:05:45;;;;;;;6.60;3.50;;;7.00;89.30;;;;;;6175446;22;89951;-72
2023/04/15 01:08:11;;;;;;;7.00;4.20;;;7.00;88.70;;;;;;6175272;22;91217;-73
2023/04/15 01:10:37;;;;;;;8.52;4.00;;;7.10;90.30;;;;;;6175435;22;90718;-72
2023/04/15 01:13:03;;;;;;;8.93;4.05;;;7.10;89.20;;;;;;6201967;22;87684;-72
2023/04/15 01:15:28;;;;;;;12.55;3.97;;;7.10;89.10;;;;;;6176899;22;90843;-72
2023/04/15 01:17:54;;;;;;;7.82;4.18;;;7.20;90.30;;;;;;6175556;22;91758;-72
2023/04/15 01:20:21;;;;;;;7.80;4.50;;;7.20;89.50;;;;;;6175498;22;90594;-72
2023/04/15 01:22:47;;;;;;;7.60;4.00;;;7.20;89.80;;;;;;6175154;22;87567;-72
2023/04/15 01:25:18;;;;;;;7.07;3.85;;;7.20;89.00;;;;;;6202374;22;87545;-72
2023/04/15 01:27:44;;;;;;;6.80;3.38;;;7.20;89.00;;;;;;6201759;22;88953;-72
2023/04/15 01:30:10;;;;;;;6.40;3.53;;;7.30;88.80;;;;;;6175437;22;91965;-72
2023/04/15 01:32:36;;;;;;;7.68;3.95;;;7.30;89.20;;;;;;6174676;22;87878;-72
2023/04/15 01:35:02;;;;;;;7.95;4.10;;;7.30;89.00;;;;;;6174649;22;90059;-72
2023/04/15 01:37:28;;;;;;;6.90;3.67;;;7.30;89.40;;;;;;6174088;22;91258;-72
2023/04/15 01:39:54;;;;;;;6.18;3.97;;;7.30;88.70;;;;;;6174616;22;90490;-72
2023/04/15 01:42:21;;;;;;;9.10;3.92;;;7.30;87.40;;;;;;6202260;22;87696;-72
2023/04/15 01:44:47;;;;;;;11.50;3.53;;;7.30;87.20;;;;;;6201694;22;86798;-72
2023/04/15 01:47:13;;;;;;;8.95;3.78;;;7.30;89.10;;;;;;6202180;22;87562;-72
2023/04/15 01:49:38;;;;;;;9.27;3.83;;;7.30;87.10;;;;;;6202422;22;88875;-72
2023/04/15 01:52:04;;;;;;;8.18;3.35;;;7.30;83.70;;;;;;6176087;22;88408;-72
2023/04/15 01:54:30;;;;;;;7.38;3.80;;;7.30;85.70;;;;;;6177030;22;90928;-72
2023/04/15 01:56:55;;;;;;;9.93;3.47;;;7.40;87.50;;;;;;6203324;22;88461;-72
2023/04/15 01:59:21;;;;;;;9.30;3.40;;;7.40;86.50;;;;;;6175717;22;91040;-72
2023/04/15 02:01:47;;;;;;;9.20;3.10;;;7.40;83.90;;;;;;6203892;22;87926;-72
2023/04/15 02:04:16;;;;;;;10.70;3.08;;;7.40;84.50;;;;;;6136854;22;89140;-72
2023/04/15 02:06:43;;;;;;;9.63;3.58;;;7.50;84.50;;;;;;6139248;22;88815;-72
2023/04/15 02:09:09;;;;;;;8.05;3.35;;;7.50;85.40;;;;;;6112856;22;90680;-72
2023/04/15 02:11:36;;;;;;;9.82;2.70;;;7.50;83.90;;;;;;6138804;22;87582;-71
2023/04/15 02:14:03;;;;;;;7.80;2.95;;;7.50;82.20;;;;;;6114037;22;89765;-72
2023/04/15 02:16:29;;;;;;;5.82;2.97;;;7.50;84.20;;;;;;6137002;22;89351;-72
2023/04/15 02:18:55;;;;;;;9.70;3.00;;;7.50;84.30;;;;;;6113173;22;90220;-72
2023/04/15 02:21:21;;;;;;;5.20;2.72;;;7.60;83.00;;;;;;6115139;22;87647;-72
2023/04/15 02:23:47;;;;;;;5.90;2.85;;;7.60;83.90;;;;;;6138873;22;87705;-72
2023/04/15 02:26:13;;;;;;;11.20;2.90;;;7.60;83.70;;;;;;6137642;22;89282;-72
2023/04/15 02:28:38;;;;;;;7.10;2.65;;;7.60;84.20;;;;;;6077240;23;89820;-72
2023/04/15 02:31:05;;;;;;;11.20;3.20;;;7.60;82.70;;;;;;6079385;23;87894;-72
2023/04/15 02:33:31;;;;;;;9.48;2.83;;;7.60;81.40;;;;;;6079935;23;87360;-72
2023/04/15 02:35:58;;;;;;;9.25;3.05;;;7.60;81.40;;;;;;6124445;22;89068;-72
2023/04/15 02:38:23;;;;;;;7.57;3.50;;;7.60;82.30;;;;;;6138034;22;91534;-72
2023/04/15 02:40:49;;;;;;;10.25;3.45;;;7.60;84.00;;;;;;6112715;22;88729;-72
2023/04/15 02:43:16;;;;;;;6.47;3.58;;;7.60;82.20;;;;;;6137830;22;87973;-72
2023/04/15 02:45:42;;;;;;;5.38;2.83;;;7.60;83.20;;;;;;6138968;22;87973;-72
2023/04/15 02:48:08;;;;;;;10.20;3.35;;;7.70;82.90;;;;;;6138795;22;88189;-72
2023/04/15 02:50:34;;;;;;;8.50;3.40;;;7.70;82.80;;;;;;6113456;22;88097;-72
2023/04/15 02:53:01;;;;;;;7.57;2.80;;;7.70;84.20;;;;;;6112757;22;88986;-72
2023/04/15 02:55:27;;;;;;;10.02;3.92;;;7.70;84.10;;;;;;6137350;22;88332;-72
2023/04/15 02:57:52;;;;;;;16.70;5.90;;;7.70;87.00;;;;;;6137772;22;88040;-72
2023/04/15 03:00:19;;;;;;;15.90;5.53;;;7.60;86.20;;;;;;6160766;22;87740;-72
2023/04/15 03:02:45;;;;;;;9.80;4.05;;;7.60;86.10;;;;;;6202796;22;87858;-72
2023/04/15 03:05:12;;;;;;;7.07;3.53;;;7.60;88.10;;;;;;6174811;22;91995;-72
2023/04/15 03:07:39;;;;;;;13.25;4.05;;;7.60;87.10;;;;;;6202293;22;88901;-72
2023/04/15 03:10:06;;;;;;;7.20;3.10;;;7.70;87.40;;;;;;6176520;22;87707;-72
2023/04/15 03:12:32;;;;;;;7.45;3.22;;;7.60;87.00;;;;;;6137728;22;89535;-72
2023/04/15 03:14:57;;;;;;;7.20;3.38;;;7.60;86.00;;;;;;6138424;22;88199;-72
2023/04/15 03:17:23;;;;;;;9.52;3.85;;;7.60;87.70;;;;;;6138187;22;88132;-72
2023/04/15 03:19:48;;;;;;;10.77;3.60;;;7.60;87.80;;;;;;6138459;22;87692;-72
2023/04/15 03:22:14;;;;;;;9.13;3.58;;;7.60;87.20;;;;;;6114239;22;90707;-72
2023/04/15 03:24:40;;;;;;;9.85;4.10;;;7.60;87.80;;;;;;6114153;22;91155;-72
2023/04/15 03:27:06;;;;;;;11.38;3.55;;;7.60;89.00;;;;;;6113672;22;90812;-72
2023/04/15 03:29:32;;;;;;;8.68;3.78;;;7.60;87.90;;;;;;6112256;22;88694;-72
2023/04/15 03:31:58;;;;;;;6.95;3.70;;;7.60;87.30;;;;;;6113285;22;90466;-72
2023/04/15 03:34:23;;;;;;;6.53;3.80;;;7.60;87.00;;;;;;6138531;22;88296;-72
2023/04/15 03:36:49;;;;;;;8.48;3.65;;;7.50;89.40;;;;;;6137264;22;88248;-72
2023/04/15 03:39:15;;;;;;;8.05;3.63;;;7.60;90.40;;;;;;6138616;22;87734;-72
2023/04/15 03:41:41;;;;;;;7.10;3.97;;;7.60;90.10;;;;;;6113111;22;89855;-72
2023/04/15 03:44:06;;;;;;;8.65;3.90;;;7.60;90.10;;;;;;6184041;22;88536;-72
2023/04/15 03:46:32;;;;;;;8.73;3.38;;;7.60;89.30;;;;;;6176300;22;89598;-73
2023/04/15 03:48:58;;;;;;;6.97;3.47;;;7.50;90.00;;;;;;6202644;22;87478;-72
2023/04/15 03:51:23;;;;;;;6.90;3.15;;;7.50;90.10;;;;;;6203073;22;87566;-72
2023/04/15 03:53:50;;;;;;;7.53;3.33;;;7.50;88.70;;;;;;6174770;22;92203;-72
2023/04/15 03:56:16;;;;;;;7.05;2.83;;;7.50;88.90;;;;;;6175727;22;90295;-72
2023/04/15 03:58:41;;;;;;;7.18;3.47;;;7.50;89.50;;;;;;6175469;22;88017;-72
2023/04/15 04:01:07;;;;;;;5.10;3.22;;;7.50;88.70;;;;;;6202659;22;87827;-73
2023/04/15 04:03:33;;;;;;;8.32;3.72;;;7.50;88.60;;;;;;6203432;22;88356;-72
2023/04/15 04:05:59;;;;;;;7.30;3.70;;;7.50;89.60;;;;;;6201656;22;88638;-72
2023/04/15 04:08:26;;;;;;;11.68;3.75;;;7.50;89.40;;;;;;6175971;22;87645;-72
2023/04/15 04:10:51;;;;;;;7.80;3.50;;;7.50;89.60;;;;;;6202590;22;86992;-72
2023/04/15 04:13:17;;;;;;;12.02;4.13;;;7.50;90.10;;;;;;6175285;22;91083;-72
2023/04/15 04:15:43;;;;;;;9.85;3.70;;;7.50;89.20;;;;;;6202839;22;87870;-72
2023/04/15 04:18:08;;;;;;;6.30;3.30;;;7.50;89.60;;;;;;6174359;22;88557;-73
2023/04/15 04:20:34;;;;;;;6.72;3.45;;;7.50;89.20;;;;;;6176087;22;90598;-72
2023/04/15 04:23:00;;;;;;;8.00;3.53;;;7.50;88.10;;;;;;6175472;22;91528;-72
2023/04/15 04:25:26;;;;;;;7.50;3.28;;;7.50;88.20;;;;;;6175488;22;90951;-72
2023/04/15 04:27:51;;;;;;;7.30;3.22;;;7.50;87.20;;;;;;6202561;22;88008;-72
2023/04/15 04:30:17;;;;;;;6.18;3.15;;;7.50;87.10;;;;;;6203285;22;87690;-73
2023/04/15 04:32:43;;;;;;;11.90;4.43;;;7.50;88.30;;;;;;6175226;22;90702;-72
2023/04/15 04:35:08;;;;;;;8.10;3.88;;;7.50;88.00;;;;;;6201988;22;87952;-72
2023/04/15 04:37:34;;;;;;;7.63;4.15;;;7.50;87.80;;;;;;6175879;22;87753;-73
2023/04/15 04:40:00;;;;;;;10.43;3.97;;;7.50;87.90;;;;;;6202314;22;87974;-72
2023/04/15 04:42:25;;;;;;;6.80;3.80;;;7.50;87.80;;;;;;6201800;22;90736;-73
2023/04/15 04:44:51;;;;;;;7.80;3.90;;;7.50;89.40;;;;;;6202149;22;88855;-73
2023/04/15 04:47:17;;;;;;;8.43;3.72;;;7.50;88.80;;;;;;6202295;22;87725;-72
2023/04/15 04:49:42;;;;;;;10.23;4.05;;;7.50;89.10;;;;;;6202566;22;87551;-72
2023/04/15 04:52:08;;;;;;;8.70;4.68;;;7.50;88.80;;;;;;6174852;22;91521;-73
2023/04/15 04:54:34;;;;;;;8.48;3.50;;;7.50;88.50;;;;;;6176310;22;89226;-72
2023/04/15 04:57:00;;;;;;;10.52;4.05;;;7.60;87.70;;;;;;6206478;22;87983;-72
2023/04/15 04:59:26;;;;;;;8.32;4.13;;;7.50;87.50;;;;;;6180431;22;90322;-73
2023/04/15 05:01:52;;;;;;;10.75;4.50;;;7.60;88.80;;;;;;6176099;22;91447;-72
2023/04/15 05:04:17;;;;;;;11.63;4.68;;;7.60;88.10;;;;;;6174641;22;91692;-72
2023/04/15 05:06:43;;;;;;;8.50;4.70;;;7.60;87.70;;;;;;6202547;22;88664;-72
2023/04/15 05:09:08;;;;;;;12.75;5.32;;;7.60;88.70;;;;;;6175700;22;96018;-72
2023/04/15 05:11:34;;;;;;;8.50;4.43;;;7.60;89.60;;;;;;6201856;22;88136;-72
2023/04/15 05:14:01;;;;;;;11.05;4.30;;;7.60;88.60;;;;;;6175458;22;90669;-72
2023/04/15 05:16:26;;;;;;;8.43;3.65;;;7.70;89.30;;;;;;6174992;22;87476;-72
2023/04/15 05:18:52;;;;;;;11.75;3.55;;;7.70;87.70;;;;;;6174487;22;88491;-73
2023/04/15 05:21:18;;;;;;;10.50;3.85;;;7.70;87.80;;;;;;6203305;22;87650;-71
2023/04/15 05:23:44;;;;;;;8.05;4.05;;;7.70;86.90;;;;;;6175662;22;91260;-72
2023/04/15 05:26:10;;;;;;;12.20;4.32;;;7.70;87.50;;;;;;6202113;22;87926;-72
2023/04/15 05:28:35;;;;;;;13.35;3.55;;;7.70;88.10;;;;;;6199975;22;87492;-72
2023/04/15 05:31:01;;;;;;;8.50;3.47;;;7.80;87.50;;;;;;6201897;22;90182;-72
2023/04/15 05:33:27;;;;;;;7.97;3.35;;;7.80;85.70;;;;;;6203384;22;90739;-72
2023/04/15 05:35:52;;;;;;;7.28;3.90;;;7.80;85.30;;;;;;6174997;22;87480;-72
2023/04/15 05:38:18;;;;;;;10.18;4.20;;;7.90;84.40;;;;;;6174434;22;88221;-72
2023/04/15 05:40:43;;;;;;;10.48;3.95;;;7.90;83.70;;;;;;6174192;22;94360;-72
2023/04/15 05:43:09;;;;;;;11.32;4.57;;;7.90;84.50;;;;;;6201546;22;87964;-72
2023/04/15 05:45:35;;;;;;;7.95;4.53;;;8.00;86.00;;;;;;6175680;22;87601;-73
2023/04/15 05:48:00;;;;;;;8.48;4.10;;;8.00;85.90;;;;;;6202963;22;86931;-73
2023/04/15 05:50:26;;;;;;;11.90;4.38;;;8.00;86.70;;;;;;6174609;22;90090;-72
2023/04/15 05:52:52;;;;;;;10.60;3.70;;;8.00;86.70;;;;;;6201155;22;88237;-72
2023/04/15 05:55:17;;;;;;;13.68;4.15;;;8.10;84.70;;;;;;6200298;22;88771;-72
2023/04/15 05:57:43;;;;;;;11.88;4.40;;;8.10;84.40;;;;;;6176079;22;88663;-72
2023/04/15 06:00:09;;;;;;;15.63;5.10;;;8.20;84.10;;;;;;6202391;22;94960;-72
2023/04/15 06:02:35;;;;;;;13.77;4.82;;;8.20;83.80;;;;;;6174495;22;91072;-72
2023/04/15 06:05:01;;;;;;;9.02;4.07;;;8.30;82.60;;;;;;6202049;22;87557;-72
2023/04/15 06:07:26;;;;;;;8.73;4.00;;;8.40;83.50;;;;;;6201789;22;88105;-72
2023/04/15 06:09:52;;;;;;;11.38;4.78;;;8.40;83.20;;;;;;6175185;22;91005;-73
2023/04/15 06:12:17;;;;;;;8.32;4.03;;;8.50;82.60;;;;;;6203977;22;88605;-72
2023/04/15 06:14:43;;;;;;;7.50;4.05;;;8.60;81.60;;;;;;6202042;22;87922;-72
2023/04/15 06:17:09;;;;;;;9.50;3.80;;;8.70;80.80;;;;;;6200051;22;87725;-72
2023/04/15 06:19:37;;;;;;;11.80;4.65;;;8.70;81.00;;;;;;6201254;22;91009;-77
2023/04/15 06:22:03;;;;;;;9.82;3.92;;;8.80;80.50;;;;;;6202155;22;88922;-75
2023/04/15 06:24:29;;;;;;;11.57;4.30;;;8.90;80.60;;;;;;6206133;22;87429;-75
2023/04/15 06:26:55;;;;;;;7.30;4.03;;;8.90;79.10;;;;;;6178055;22;90080;-73
2023/04/15 06:29:20;;;;;;;15.20;4.95;;;9.00;78.60;;;;;;6205502;22;89634;-73
2023/04/15 06:31:50;;;;;;;12.57;4.20;;;9.00;78.80;;;;;;6170660;22;90700;-77
2023/04/15 06:34:15;;;;;;;10.02;4.30;;;9.10;78.40;;;;;;6172236;22;87539;-74
2023/04/15 06:36:41;;;;;;;11.75;4.35;;;9.10;77.50;;;;;;6174897;22;87225;-72
2023/04/15 06:39:07;;;;;;;10.70;4.32;;;9.20;78.30;;;;;;6173647;22;90756;-73
2023/04/15 06:41:33;;;;;;;11.45;4.60;;;9.20;77.70;;;;;;6173835;22;87926;-76
2023/04/15 06:43:58;;;;;;;13.80;4.97;;;9.20;78.00;;;;;;6172424;22;94249;-75
2023/04/15 06:46:24;;;;;;;10.88;5.15;;;9.30;77.00;;;;;;6172627;22;88125;-75
2023/04/15 06:48:51;;;;;;;9.52;4.70;;;9.30;78.00;;;;;;6147265;22;89111;-75
2023/04/15 06:51:17;;;;;;;11.23;4.80;;;9.30;76.90;;;;;;6173304;22;87877;-77
2023/04/15 06:53:42;;;;;;;13.02;4.95;;;9.30;76.90;;;;;;6172687;22;88508;-76
2023/04/15 06:56:09;;;;;;;12.05;5.57;;;9.40;77.30;;;;;;6147261;22;90398;-75
2023/04/15 06:58:35;;;;;;;13.43;5.38;;;9.50;77.80;;;;;;6172648;22;87769;-76
2023/04/15 07:01:00;;;;;;;13.20;5.32;;;9.50;78.10;;;;;;6172487;22;88695;-75
2023/04/15 07:03:26;;;;;;;13.63;5.65;;;9.60;76.40;;;;;;6197721;22;87678;-75
2023/04/15 07:05:52;;;;;;;13.60;5.82;;;9.80;77.90;;;;;;6203824;22;87679;-76
2023/04/15 07:08:19;;;;;;;18.90;6.40;;;9.90;77.60;;;;;;6204025;22;88948;-76
2023/04/15 07:10:46;;;;;;;12.25;6.35;;;10.10;76.20;;;;;;6204365;22;88699;-75
2023/04/15 07:13:12;;;;;;;12.55;6.43;;;10.30;75.50;;;;;;6177735;22;88002;-76
2023/04/15 07:15:37;;;;;;;18.35;5.68;;;10.50;74.10;;;;;;6178657;22;90514;-77
2023/04/15 07:18:03;;;;;;;14.45;5.47;;;10.60;72.80;;;;;;6199406;22;88454;-76
2023/04/15 07:20:29;;;;;;;14.40;5.78;;;10.70;72.10;;;;;;6173180;22;90396;-77
2023/04/15 07:22:55;;;;;;;11.07;5.68;;;10.80;71.60;;;;;;6175588;22;88089;-75
2023/04/15 07:25:21;;;;;;;10.75;5.13;;;10.90;70.90;;;;;;6204870;22;86817;-77
2023/04/15 07:27:46;;;;;;;11.75;5.80;;;11.00;70.70;;;;;;6197293;22;87673;-78
2023/04/15 07:30:18;;;;;;;13.15;5.97;;;11.10;71.80;;;;;;6177943;22;90884;-77
2023/04/15 07:32:44;;;;;;;13.30;6.05;;;11.20;69.80;;;;;;6092417;22;88859;-76
2023/04/15 07:35:10;;;;;;;12.75;6.50;;;11.20;69.50;;;;;;6162219;22;90246;-77
2023/04/15 07:37:36;;;;;;;14.90;5.68;;;11.30;69.50;;;;;;6205954;22;88849;-80
2023/04/15 07:40:05;;;;;;;10.52;5.07;;;11.40;69.10;;;;;;6178458;22;90374;-77
2023/04/15 07:42:33;;;;;;;9.85;5.38;;;11.60;69.00;;;;;;6206661;22;87884;-77
2023/04/15 07:44:58;;;;;;;13.57;5.32;;;11.60;68.50;;;;;;6179827;22;90149;-75
2023/04/15 07:47:26;;;;;;;15.77;5.07;;;11.80;67.20;;;;;;6170264;22;88326;-76
2023/04/15 07:49:51;;;;;;;10.20;5.13;;;11.90;67.40;;;;;;6145809;22;91057;-75
2023/04/15 07:52:17;;;;;;;10.55;5.15;;;12.00;66.30;;;;;;6170586;22;87990;-75
2023/04/15 07:54:43;;;;;;;13.27;5.53;;;12.20;65.80;;;;;;6145979;22;88898;-75
2023/04/15 07:57:09;;;;;;;11.73;4.85;;;12.40;66.50;;;;;;6108121;23;91954;-75
2023/04/15 07:59:35;;;;;;;9.30;5.05;;;12.50;65.50;;;;;;6112061;23;89316;-74
2023/04/15 08:02:01;;;;;;;11.88;5.05;;;12.70;65.70;;;;;;6111263;23;87289;-75
2023/04/15 08:04:27;;;;;;;11.85;5.05;;;12.80;64.90;;;;;;6110730;23;88562;-76
2023/04/15 08:06:53;;;;;;;12.25;5.75;;;13.00;64.90;;;;;;6113430;23;87772;-76
2023/04/15 08:09:42;;;;;;;11.20;5.25;;;13.10;63.00;;;;;;6085674;23;90968;-74
2023/04/15 08:12:11;;;;;;;10.20;5.40;;;13.30;64.10;;;;;;6027308;23;87905;-77
2023/04/15 08:14:38;;;;;;;16.17;5.40;;;13.40;62.70;;;;;;6029937;23;87539;-78
2023/04/15 08:17:04;;;;;;;8.60;4.95;;;13.60;63.10;;;;;;6002263;23;91724;-78
2023/04/15 08:19:30;;;;;;;11.02;4.97;;;13.70;62.50;;;;;;6054006;23;87920;-77
2023/04/15 08:21:56;;;;;;;13.35;4.95;;;13.90;61.90;;;;;;6055456;23;88596;-79
2023/04/15 08:24:23;;;;;;;15.50;5.63;;;14.10;60.30;;;;;;6058006;23;87072;-77
2023/04/15 08:26:48;;;;;;;13.20;5.78;;;14.20;59.30;;;;;;6057308;23;91787;-77
2023/04/15 08:29:14;;;;;;;9.50;5.43;;;14.30;60.30;;;;;;6056345;23;90986;-75
2023/04/15 08:31:40;;;;;;;13.38;6.57;;;14.50;60.10;;;;;;6055892;23;88054;-76
2023/04/15 08:34:06;;;;;;;8.52;6.03;;;14.50;59.40;;;;;;6066405;23;88893;-76
2023/04/15 08:36:32;;;;;;;11.85;6.28;;;14.60;59.00;;;;;;6088333;23;91460;-77
2023/04/15 08:39:00;;;;;;;14.07;7.28;;;14.80;59.00;;;;;;6115679;23;88240;-76
2023/04/15 08:41:26;;;;;;;14.45;8.43;;;14.90;59.40;;;;;;6088755;23;87445;-77
2023/04/15 08:43:56;;;;;;;11.48;8.18;;;15.00;58.90;;;;;;6088785;23;90501;-76
2023/04/15 08:46:22;;;;;;;11.90;8.77;;;15.20;59.40;;;;;;6087600;23;92397;-76
2023/04/15 08:48:49;;;;;;;14.98;8.63;;;15.30;58.10;;;;;;6065894;22;91509;-76
2023/04/15 08:51:16;;;;;;;16.48;9.68;;;15.40;59.50;;;;;;6142729;22;87632;-76
2023/04/15 08:53:46;;;;;;;15.75;8.70;;;15.40;57.40;;;;;;6143641;22;87421;-76
2023/04/15 08:56:14;;;;;;;12.93;8.35;;;15.40;57.70;;;;;;6117526;22;91392;-76
2023/04/15 08:58:41;;;;;;;13.50;8.07;;;15.40;57.30;;;;;;6141831;22;87975;-76
2023/04/15 09:01:06;;;;;;;18.98;7.85;;;15.40;57.60;;;;;;6143141;22;87630;-76
2023/04/15 09:03:33;;;;;;;11.20;7.22;;;15.50;57.90;;;;;;6117662;22;90186;-76
2023/04/15 09:05:59;;;;;;;13.85;7.60;;;15.60;57.50;;;;;;6101890;23;92369;-77
2023/04/15 09:08:25;;;;;;;12.07;7.53;;;15.70;57.20;;;;;;6108582;23;88436;-77
2023/04/15 09:10:52;;;;;;;9.50;6.72;;;15.60;56.70;;;;;;6111973;22;88057;-76
2023/04/15 09:13:18;;;;;;;12.38;6.97;;;15.70;57.90;;;;;;6107666;22;88854;-76
2023/04/15 09:15:44;;;;;;;8.65;5.93;;;15.90;57.20;;;;;;6087666;23;92046;-76
2023/04/15 09:18:12;;;;;;;15.77;7.00;;;15.90;56.60;;;;;;6086599;22;89907;-77
2023/04/15 09:20:41;;;;;;;10.95;6.15;;;15.90;56.30;;;;;;6139458;22;87213;-76
2023/04/15 09:23:12;;;;;;;9.55;6.43;;;16.00;55.80;;;;;;6141803;22;90597;-76
2023/04/15 09:25:41;;;;;;;8.95;5.88;;;16.10;55.70;;;;;;6141921;22;92385;-77
2023/04/15 09:28:07;;;;;;;10.82;5.88;;;16.20;56.10;;;;;;6143224;22;90391;-76
2023/04/15 09:30:34;;;;;;;8.90;5.43;;;16.30;53.90;;;;;;6141922;22;87561;-75
2023/04/15 09:33:01;;;;;;;9.88;5.68;;;16.40;54.40;;;;;;6143768;22;87519;-75
2023/04/15 09:35:27;;;;;;;6.47;5.05;;;16.60;54.00;;;;;;6140657;22;91304;-76
2023/04/15 09:38:01;;;;;;;6.32;5.00;;;16.80;52.60;;;;;;6141114;22;92309;-77
2023/04/15 09:40:36;;;;;;;7.57;5.15;;;16.90;53.20;;;;;;6141949;22;88202;-77
2023/04/15 09:43:04;;;;;;;9.32;4.80;;;17.10;53.70;;;;;;6141237;22;91093;-76
2023/04/15 09:45:31;;;;;;;9.77;5.07;;;17.30;52.70;;;;;;6141764;22;91497;-76
2023/04/15 09:47:58;;;;;;;9.02;4.82;;;17.50;53.50;;;;;;6142374;22;90511;-77
2023/04/15 09:50:28;;;;;;;15.45;4.80;;;17.60;51.70;;;;;;6144293;22;87594;-76
2023/04/15 09:52:54;;;;;;;9.38;4.65;;;17.60;50.20;;;;;;6143867;22;86735;-78
2023/04/15 09:55:20;;;;;;;8.18;4.68;;;17.70;51.00;;;;;;6142907;22;91539;-77
2023/04/15 09:57:46;;;;;;;7.70;4.30;;;18.00;52.70;;;;;;6141414;22;91724;-76
2023/04/15 10:00:12;;;;;;;6.90;4.18;;;18.20;52.40;;;;;;6143759;22;88419;-77
2023/04/15 10:02:41;;;;;;;6.60;4.47;;;18.60;55.00;;;;;;6143533;22;90447;-77
2023/04/15 10:05:10;;;;;;;10.75;5.22;;;18.70;52.40;;;;;;6155809;22;88896;-77
2023/04/15 10:07:39;;;;;;;7.05;4.53;;;18.70;51.50;;;;;;6204458;22;88023;-76
2023/04/15 10:10:06;;;;;;;5.65;4.50;;;18.70;53.10;;;;;;6178468;22;87622;-76
2023/04/15 10:12:32;;;;;;;8.20;4.30;;;18.80;53.20;;;;;;6141370;22;90473;-77
2023/04/15 10:15:04;;;;;;;11.27;4.38;;;18.70;51.80;;;;;;6120852;22;91583;-76
2023/04/15 10:17:34;;;;;;;5.25;3.30;;;18.70;50.90;;;;;;6144756;22;92918;-76
2023/04/15 10:20:04;;;;;;;6.10;3.60;;;18.80;50.90;;;;;;6120072;22;87557;-77
2023/04/15 10:22:30;;;;;;;7.30;4.15;;;19.10;49.50;;;;;;6143444;22;88088;-76
2023/04/15 10:24:57;;;;;;;7.45;4.07;;;19.30;50.00;;;;;;6142644;22;89009;-74
2023/04/15 10:27:23;;;;;;;6.85;3.60;;;19.40;48.90;;;;;;6116417;22;90662;-76
2023/04/15 10:29:50;;;;;;;5.47;3.17;;;19.70;50.20;;;;;;6143330;22;87593;-74
2023/04/15 10:32:19;;;;;;;5.80;2.15;;;19.90;50.00;;;;;;6140355;22;89178;-74
2023/04/15 10:34:47;;;;;;;3.60;2.22;;;19.60;46.70;;;;;;6116295;22;91957;-76
2023/04/15 10:37:18;;;;;;;5.18;2.67;;;19.30;44.60;;;;;;6115711;22;93102;-76
2023/04/15 10:39:44;;;;;;;4.95;2.42;;;19.40;47.60;;;;;;6142922;22;87642;-76
2023/04/15 10:42:15;;;;;;;1.67;1.33;;;19.50;47.30;;;;;;6116862;22;89121;-76
2023/04/15 10:44:42;;;;;;;2.47;1.30;;;19.50;43.00;;;;;;6203806;22;87776;-77
2023/04/15 10:47:19;;;;;;;3.30;1.35;;;19.20;44.30;;;;;;6179212;22;91530;-77
2023/04/15 10:49:50;;;;;;;2.63;1.60;;;19.30;45.00;;;;;;6179125;22;88756;-77
2023/04/15 10:52:21;;;;;;;3.47;2.10;;;19.50;44.60;;;;;;6171912;22;90343;-77
2023/04/15 10:54:47;;;;;;;3.50;2.50;;;19.40;45.20;;;;;;6147375;22;91575;-76
2023/04/15 10:57:21;;;;;;;6.90;2.05;;;19.50;45.50;;;;;;6146650;22;91436;-76
2023/04/15 10:59:59;;;;;;;3.80;2.35;;;19.70;46.90;;;;;;6148796;22;87622;-75
2023/04/15 11:02:41;;;;;;;6.10;2.25;;;19.80;44.60;;;;;;6146880;22;90659;-75
2023/04/15 11:05:07;;;;;;;3.60;1.73;;;19.80;45.20;;;;;;6171426;22;89086;-74
2023/04/15 11:07:37;;;;;;;5.15;2.65;;;19.90;46.30;;;;;;6146708;22;91025;-74
2023/04/15 11:10:24;;;;;;;3.20;1.98;;;20.00;45.90;;;;;;6172690;22;87836;-75
2023/04/15 11:12:51;;;;;;;3.20;2.10;;;19.90;46.20;;;;;;6146449;22;90327;-74
2023/04/15 11:15:39;;;;;;;3.63;2.35;;;19.70;47.00;;;;;;6145568;22;92175;-74
2023/04/15 11:18:16;;;;;;;3.25;2.33;;;19.80;47.50;;;;;;6146247;22;91793;-74
2023/04/15 11:20:49;;;;;;;7.60;2.90;;;19.90;49.50;;;;;;6148081;22;87719;-75
2023/04/15 11:23:18;;;;;;;5.43;3.38;;;20.10;48.10;;;;;;6187730;22;87581;-74
2023/04/15 11:25:45;;;;;;;6.22;2.83;;;19.70;49.30;;;;;;6183597;22;91761;-75
2023/04/15 11:28:11;;;;;;;6.70;4.30;;;19.80;52.70;;;;;;6216171;22;87877;-79
2023/04/15 11:30:38;;;;;;;5.13;3.60;;;20.20;50.30;;;;;;6191947;22;86929;-77
2023/04/15 11:33:09;;;;;;;2.95;2.50;;;20.30;47.20;;;;;;6188786;22;90653;-79
2023/04/15 11:35:35;;;;;;;3.35;2.70;;;20.20;46.80;;;;;;6197974;22;90726;-80
2023/04/15 11:38:07;;;;;;;4.50;2.05;;;20.40;47.60;;;;;;6183960;22;89781;-75
2023/04/15 11:40:34;;;;;;;2.10;1.60;;;20.60;51.40;;;;;;6184930;22;88726;-78
2023/04/15 11:43:10;;;;;;;4.80;2.33;;;20.90;53.00;;;;;;6173600;22;88501;-77
2023/04/15 11:45:38;;;;;;;2.92;2.00;;;21.10;50.70;;;;;;6189807;22;90932;-75
2023/04/15 11:48:10;;;;;;;3.30;1.80;;;21.40;47.90;;;;;;6189246;22;90944;-76
2023/04/15 11:50:39;;;;;;;1.80;1.48;;;21.50;44.00;;;;;;6189900;22;87161;-75
2023/04/15 11:53:07;;;;;;;1.92;1.40;;;21.80;45.00;;;;;;6216196;22;87031;-77
2023/04/15 11:55:47;;;;;;;2.35;1.40;;;21.80;41.60;;;;;;6187524;22;90548;-77
2023/04/15 11:58:16;;;;;;;3.63;1.45;;;21.50;40.90;;;;;;6187984;22;91368;-74
2023/04/15 12:00:56;;;;;;;2.55;1.00;;;21.40;42.50;;;;;;6190188;22;86976;-79
2023/04/15 12:03:23;;;;;;;4.30;1.65;;;21.60;44.10;;;;;;6213862;22;91402;-74
2023/04/15 12:06:21;;;;;;;2.42;1.50;;;21.90;41.50;;;;;;6181010;22;92316;-74
2023/04/15 12:08:50;;;;;;;2.60;1.63;;;22.10;43.10;;;;;;6179888;22;92082;-74
2023/04/15 12:11:20;;;;;;;1.60;1.30;;;22.30;42.30;;;;;;6207602;22;87534;-75
2023/04/15 12:13:49;;;;;;;2.05;0.90;;;22.30;42.40;;;;;;6206090;22;87612;-75
2023/04/15 12:16:23;;;;;;;1.58;0.77;;;22.40;40.70;;;;;;6178891;22;91565;-77
2023/04/15 12:18:54;;;;;;;2.95;1.30;;;22.50;41.00;;;;;;6205032;22;89583;-74
2023/04/15 12:21:22;;;;;;;2.28;1.00;;;22.50;39.70;;;;;;6208168;22;87541;-74
2023/04/15 12:23:53;;;;;;;2.58;1.10;;;22.60;42.00;;;;;;6189217;22;90876;-73
2023/04/15 12:26:29;;;;;;;2.33;1.10;;;23.10;39.70;;;;;;6192878;22;91706;-76
2023/04/15 12:29:23;;;;;;;1.10;0.80;;;23.30;40.90;;;;;;6191962;22;91067;-73
2023/04/15 12:31:54;;;;;;;1.30;0.73;;;23.40;39.80;;;;;;6211169;22;88512;-74
2023/04/15 12:34:31;;;;;;;1.35;0.70;;;23.70;36.40;;;;;;6212254;22;87538;-74
2023/04/15 12:36:59;;;;;;;1.33;0.70;;;23.40;37.60;;;;;;6185718;22;91757;-75
2023/04/15 12:39:47;;;;;;;2.08;1.00;;;23.30;37.20;;;;;;6189181;22;91190;-74
2023/04/15 12:42:14;;;;;;;2.70;0.68;;;23.60;37.60;;;;;;6187616;22;87680;-75
2023/04/15 12:44:40;;;;;;;1.90;1.00;;;24.00;38.80;;;;;;6212190;22;87335;-77
2023/04/15 12:47:07;;;;;;;2.15;0.93;;;23.60;35.60;;;;;;6188141;22;90462;-74
2023/04/15 12:49:33;;;;;;;1.45;0.70;;;23.50;36.30;;;;;;6214072;22;87084;-74